sensor_id;sensor_type;location;lat;lon;timestamp;P1;durP1;ratioP1;P2;durP2;ratioP2
26512;SDS011;14186;53.822;10.152;2024-03-23T00:54:01;16.13;;;2.10;;
26512;SDS011;14186;53.822;10.152;2024-03-23T00:59:02;16.35;;;2.67;;
26512;SDS011;14186;53.822;10.152;2024-03-23T01:04:02;12.15;;;2.08;;
26512;SDS011;14186;53.822;10.152;2024-03-23T01:09:04;17.65;;;2.47;;
26512;SDS011;14186;53.822;10.152;2024-03-23T01:14:04;13.07;;;1.85;;
26512;SDS011;14186;53.822;10.152;2024-03-23T01:19:04;15.02;;;2.50;;
26512;SDS011;14186;53.822;10.152;2024-03-23T01:24:06;13.52;;;1.83;;
26512;SDS011;14186;53.822;10.152;2024-03-23T01:29:06;10.95;;;1.63;;
26512;SDS011;14186;53.822;10.152;2024-03-23T01:34:06;16.33;;;2.20;;
26512;SDS011;14186;53.822;10.152;2024-03-23T01:39:08;19.60;;;3.00;;
26512;SDS011;14186;53.822;10.152;2024-03-23T01:44:08;12.95;;;1.80;;
26512;SDS011;14186;53.822;10.152;2024-03-23T01:49:10;12.15;;;1.83;;
26512;SDS011;14186;53.822;10.152;2024-03-23T01:54:11;17.10;;;2.58;;
26512;SDS011;14186;53.822;10.152;2024-03-23T01:59:12;7.25;;;1.33;;
26512;SDS011;14186;53.822;10.152;2024-03-23T02:04:13;16.58;;;1.30;;
26512;SDS011;14186;53.822;10.152;2024-03-23T02:09:14;15.77;;;2.22;;
26512;SDS011;14186;53.822;10.152;2024-03-23T02:14:14;14.35;;;2.15;;
26512;SDS011;14186;53.822;10.152;2024-03-23T02:19:15;7.53;;;1.50;;
26512;SDS011;14186;53.822;10.152;2024-03-23T02:24:16;18.77;;;1.80;;
26512;SDS011;14186;53.822;10.152;2024-03-23T02:29:16;12.65;;;1.67;;
26512;SDS011;14186;53.822;10.152;2024-03-23T02:34:17;11.13;;;1.60;;
26512;SDS011;14186;53.822;10.152;2024-03-23T02:39:18;13.35;;;2.05;;
26512;SDS011;14186;53.822;10.152;2024-03-23T02:44:19;8.25;;;1.60;;
26512;SDS011;14186;53.822;10.152;2024-03-23T02:49:19;14.55;;;2.78;;
26512;SDS011;14186;53.822;10.152;2024-03-23T02:54:20;11.75;;;1.60;;
26512;SDS011;14186;53.822;10.152;2024-03-23T02:59:21;11.30;;;2.30;;
26512;SDS011;14186;53.822;10.152;2024-03-23T03:04:21;9.88;;;1.70;;
26512;SDS011;14186;53.822;10.152;2024-03-23T03:09:23;18.58;;;2.95;;
26512;SDS011;14186;53.822;10.152;2024-03-23T03:14:23;9.93;;;1.83;;
26512;SDS011;14186;53.822;10.152;2024-03-23T03:19:23;11.20;;;2.15;;
26512;SDS011;14186;53.822;10.152;2024-03-23T03:24:25;16.43;;;1.73;;
26512;SDS011;14186;53.822;10.152;2024-03-23T03:29:25;9.55;;;2.25;;
26512;SDS011;14186;53.822;10.152;2024-03-23T03:34:25;11.18;;;1.83;;
26512;SDS011;14186;53.822;10.152;2024-03-23T03:39:27;14.65;;;2.35;;
26512;SDS011;14186;53.822;10.152;2024-03-23T03:44:27;16.60;;;2.05;;
26512;SDS011;14186;53.822;10.152;2024-03-23T03:49:27;15.02;;;1.85;;
26512;SDS011;14186;53.822;10.152;2024-03-23T03:54:29;13.25;;;2.42;;
26512;SDS011;14186;53.822;10.152;2024-03-23T03:59:29;17.73;;;2.25;;
26512;SDS011;14186;53.822;10.152;2024-03-23T04:04:30;14.00;;;3.03;;
26512;SDS011;14186;53.822;10.152;2024-03-23T04:09:31;14.85;;;2.35;;
26512;SDS011;14186;53.822;10.152;2024-03-23T04:14:31;10.88;;;1.70;;
26512;SDS011;14186;53.822;10.152;2024-03-23T04:19:32;10.48;;;2.22;;
26512;SDS011;14186;53.822;10.152;2024-03-23T04:24:33;9.60;;;2.65;;
26512;SDS011;14186;53.822;10.152;2024-03-23T04:29:34;12.02;;;2.70;;
26512;SDS011;14186;53.822;10.152;2024-03-23T04:34:34;13.07;;;3.33;;
26512;SDS011;14186;53.822;10.152;2024-03-23T04:39:36;12.40;;;2.47;;
26512;SDS011;14186;53.822;10.152;2024-03-23T04:44:36;15.02;;;3.40;;
26512;SDS011;14186;53.822;10.152;2024-03-23T04:49:36;11.23;;;2.83;;
26512;SDS011;14186;53.822;10.152;2024-03-23T04:54:38;13.73;;;3.22;;
26512;SDS011;14186;53.822;10.152;2024-03-23T04:59:38;19.88;;;3.88;;
26512;SDS011;14186;53.822;10.152;2024-03-23T05:04:39;12.05;;;2.80;;
26512;SDS011;14186;53.822;10.152;2024-03-23T05:09:40;18.87;;;3.13;;
26512;SDS011;14186;53.822;10.152;2024-03-23T05:14:40;9.15;;;3.15;;
26512;SDS011;14186;53.822;10.152;2024-03-23T05:19:41;11.57;;;2.38;;
26512;SDS011;14186;53.822;10.152;2024-03-23T05:24:44;13.82;;;2.58;;
26512;SDS011;14186;53.822;10.152;2024-03-23T05:29:44;11.05;;;2.75;;
26512;SDS011;14186;53.822;10.152;2024-03-23T05:34:45;16.92;;;2.85;;
26512;SDS011;14186;53.822;10.152;2024-03-23T05:39:46;10.75;;;2.40;;
26512;SDS011;14186;53.822;10.152;2024-03-23T05:44:47;13.68;;;4.38;;
26512;SDS011;14186;53.822;10.152;2024-03-23T05:49:47;14.50;;;2.65;;
26512;SDS011;14186;53.822;10.152;2024-03-23T05:54:49;15.48;;;2.55;;
26512;SDS011;14186;53.822;10.152;2024-03-23T05:59:49;16.08;;;3.00;;
26512;SDS011;14186;53.822;10.152;2024-03-23T06:04:49;13.70;;;3.42;;
26512;SDS011;14186;53.822;10.152;2024-03-23T06:09:51;18.63;;;3.38;;
26512;SDS011;14186;53.822;10.152;2024-03-23T06:14:51;16.88;;;3.33;;
26512;SDS011;14186;53.822;10.152;2024-03-23T06:19:51;12.57;;;2.33;;
26512;SDS011;14186;53.822;10.152;2024-03-23T06:24:53;24.08;;;3.35;;
26512;SDS011;14186;53.822;10.152;2024-03-23T06:29:53;27.50;;;3.92;;
26512;SDS011;14186;53.822;10.152;2024-03-23T06:34:53;19.40;;;2.72;;
26512;SDS011;14186;53.822;10.152;2024-03-23T06:39:57;15.00;;;2.70;;
26512;SDS011;14186;53.822;10.152;2024-03-23T06:44:58;16.33;;;3.78;;
26512;SDS011;14186;53.822;10.152;2024-03-23T06:49:59;9.98;;;2.25;;
26512;SDS011;14186;53.822;10.152;2024-03-23T06:55:00;13.65;;;3.10;;
26512;SDS011;14186;53.822;10.152;2024-03-23T07:00:01;20.92;;;2.75;;
26512;SDS011;14186;53.822;10.152;2024-03-23T07:05:01;14.40;;;2.78;;
26512;SDS011;14186;53.822;10.152;2024-03-23T07:10:03;14.88;;;2.70;;
26512;SDS011;14186;53.822;10.152;2024-03-23T07:15:03;11.70;;;2.33;;
26512;SDS011;14186;53.822;10.152;2024-03-23T07:20:04;16.52;;;2.70;;
26512;SDS011;14186;53.822;10.152;2024-03-23T07:25:06;14.60;;;2.50;;
26512;SDS011;14186;53.822;10.152;2024-03-23T07:30:07;14.70;;;2.33;;
26512;SDS011;14186;53.822;10.152;2024-03-23T07:35:07;10.85;;;2.05;;
26512;SDS011;14186;53.822;10.152;2024-03-23T07:40:10;12.52;;;1.90;;
26512;SDS011;14186;53.822;10.152;2024-03-23T07:45:10;14.90;;;2.00;;
26512;SDS011;14186;53.822;10.152;2024-03-23T07:50:10;15.20;;;2.65;;
26512;SDS011;14186;53.822;10.152;2024-03-23T07:55:12;13.65;;;2.65;;
26512;SDS011;14186;53.822;10.152;2024-03-23T08:00:14;11.13;;;2.22;;
26512;SDS011;14186;53.822;10.152;2024-03-23T08:05:14;11.10;;;2.22;;
26512;SDS011;14186;53.822;10.152;2024-03-23T08:10:16;9.03;;;2.03;;
26512;SDS011;14186;53.822;10.152;2024-03-23T08:15:16;12.18;;;2.17;;
26512;SDS011;14186;53.822;10.152;2024-03-23T08:20:16;15.45;;;3.08;;
26512;SDS011;14186;53.822;10.152;2024-03-23T08:25:18;15.77;;;3.05;;
26512;SDS011;14186;53.822;10.152;2024-03-23T08:30:18;14.93;;;2.58;;
26512;SDS011;14186;53.822;10.152;2024-03-23T08:35:19;19.67;;;2.90;;
26512;SDS011;14186;53.822;10.152;2024-03-23T08:40:20;10.75;;;2.47;;
26512;SDS011;14186;53.822;10.152;2024-03-23T08:45:20;8.93;;;1.70;;
26512;SDS011;14186;53.822;10.152;2024-03-23T08:50:21;7.85;;;1.42;;
26512;SDS011;14186;53.822;10.152;2024-03-23T08:55:22;10.68;;;1.85;;
26512;SDS011;14186;53.822;10.152;2024-03-23T09:00:22;10.68;;;1.67;;
26512;SDS011;14186;53.822;10.152;2024-03-23T09:05:23;14.07;;;2.70;;
26512;SDS011;14186;53.822;10.152;2024-03-23T09:10:24;10.13;;;1.80;;
26512;SDS011;14186;53.822;10.152;2024-03-23T09:15:25;7.38;;;1.65;;
26512;SDS011;14186;53.822;10.152;2024-03-23T09:20:25;7.18;;;1.40;;
26512;SDS011;14186;53.822;10.152;2024-03-23T09:25:27;4.93;;;1.20;;
26512;SDS011;14186;53.822;10.152;2024-03-23T09:30:27;15.52;;;2.20;;
26512;SDS011;14186;53.822;10.152;2024-03-23T09:35:27;7.07;;;1.73;;
26512;SDS011;14186;53.822;10.152;2024-03-23T09:40:29;7.50;;;1.52;;
26512;SDS011;14186;53.822;10.152;2024-03-23T09:45:29;4.03;;;1.08;;
26512;SDS011;14186;53.822;10.152;2024-03-23T09:50:29;8.48;;;1.92;;
26512;SDS011;14186;53.822;10.152;2024-03-23T09:55:31;9.93;;;1.85;;
26512;SDS011;14186;53.822;10.152;2024-03-23T10:00:31;10.55;;;1.50;;
26512;SDS011;14186;53.822;10.152;2024-03-23T10:05:32;10.80;;;2.08;;
26512;SDS011;14186;53.822;10.152;2024-03-23T10:10:34;6.03;;;1.65;;
26512;SDS011;14186;53.822;10.152;2024-03-23T10:15:35;6.50;;;1.50;;
26512;SDS011;14186;53.822;10.152;2024-03-23T10:20:35;8.90;;;1.45;;
26512;SDS011;14186;53.822;10.152;2024-03-23T10:25:37;9.18;;;1.98;;
26512;SDS011;14186;53.822;10.152;2024-03-23T10:30:37;4.32;;;1.17;;
26512;SDS011;14186;53.822;10.152;2024-03-23T10:35:37;7.07;;;1.40;;
26512;SDS011;14186;53.822;10.152;2024-03-23T10:40:40;3.88;;;1.02;;
26512;SDS011;14186;53.822;10.152;2024-03-23T10:45:40;4.78;;;0.88;;
26512;SDS011;14186;53.822;10.152;2024-03-23T10:50:40;4.90;;;0.80;;
26512;SDS011;14186;53.822;10.152;2024-03-23T10:55:42;6.90;;;0.83;;
26512;SDS011;14186;53.822;10.152;2024-03-23T11:00:42;7.72;;;1.02;;
26512;SDS011;14186;53.822;10.152;2024-03-23T11:05:46;4.88;;;1.10;;
26512;SDS011;14186;53.822;10.152;2024-03-23T11:10:47;3.72;;;0.70;;
26512;SDS011;14186;53.822;10.152;2024-03-23T11:15:48;6.80;;;0.73;;
26512;SDS011;14186;53.822;10.152;2024-03-23T11:20:48;5.97;;;0.88;;
26512;SDS011;14186;53.822;10.152;2024-03-23T11:25:49;5.70;;;1.67;;
26512;SDS011;14186;53.822;10.152;2024-03-23T11:30:50;10.48;;;1.17;;
26512;SDS011;14186;53.822;10.152;2024-03-23T11:35:50;7.45;;;0.60;;
26512;SDS011;14186;53.822;10.152;2024-03-23T11:40:52;4.32;;;0.73;;
26512;SDS011;14186;53.822;10.152;2024-03-23T11:45:52;2.65;;;0.60;;
26512;SDS011;14186;53.822;10.152;2024-03-23T11:50:54;3.58;;;0.45;;
26512;SDS011;14186;53.822;10.152;2024-03-23T11:55:56;2.65;;;0.55;;
26512;SDS011;14186;53.822;10.152;2024-03-23T12:00:57;2.50;;;0.55;;
26512;SDS011;14186;53.822;10.152;2024-03-23T12:05:58;9.05;;;0.90;;
26512;SDS011;14186;53.822;10.152;2024-03-23T12:11:06;6.13;;;0.82;;
26512;SDS011;14186;53.822;10.152;2024-03-23T12:16:09;7.13;;;0.70;;
26512;SDS011;14186;53.822;10.152;2024-03-23T12:21:10;1.92;;;0.77;;
26512;SDS011;14186;53.822;10.152;2024-03-23T12:26:12;2.70;;;0.40;;
26512;SDS011;14186;53.822;10.152;2024-03-23T12:31:12;0.95;;;0.40;;
26512;SDS011;14186;53.822;10.152;2024-03-23T12:36:12;5.85;;;0.40;;
26512;SDS011;14186;53.822;10.152;2024-03-23T12:41:14;2.78;;;0.50;;
26512;SDS011;14186;53.822;10.152;2024-03-23T12:46:14;1.83;;;0.50;;
26512;SDS011;14186;53.822;10.152;2024-03-23T12:51:14;5.63;;;0.90;;
26512;SDS011;14186;53.822;10.152;2024-03-23T12:56:16;1.40;;;0.30;;
26512;SDS011;14186;53.822;10.152;2024-03-23T13:01:16;3.08;;;0.40;;
26512;SDS011;14186;53.822;10.152;2024-03-23T13:06:17;4.97;;;0.70;;
26512;SDS011;14186;53.822;10.152;2024-03-23T13:11:18;1.17;;;0.32;;
26512;SDS011;14186;53.822;10.152;2024-03-23T13:16:19;0.85;;;0.30;;
26512;SDS011;14186;53.822;10.152;2024-03-23T13:21:19;0.57;;;0.30;;
26512;SDS011;14186;53.822;10.152;2024-03-23T13:26:20;0.90;;;0.38;;
26512;SDS011;14186;53.822;10.152;2024-03-23T13:31:21;6.55;;;0.95;;
26512;SDS011;14186;53.822;10.152;2024-03-23T13:36:21;6.43;;;0.57;;
26512;SDS011;14186;53.822;10.152;2024-03-23T13:41:23;3.45;;;0.63;;
26512;SDS011;14186;53.822;10.152;2024-03-23T13:46:24;4.45;;;0.52;;
26512;SDS011;14186;53.822;10.152;2024-03-23T13:51:24;4.30;;;0.70;;
26512;SDS011;14186;53.822;10.152;2024-03-23T13:56:26;4.25;;;0.40;;
26512;SDS011;14186;53.822;10.152;2024-03-23T14:01:26;2.60;;;0.55;;
26512;SDS011;14186;53.822;10.152;2024-03-23T14:06:26;2.25;;;0.57;;
26512;SDS011;14186;53.822;10.152;2024-03-23T14:11:28;5.38;;;0.63;;
26512;SDS011;14186;53.822;10.152;2024-03-23T14:16:28;3.60;;;0.50;;
26512;SDS011;14186;53.822;10.152;2024-03-23T14:21:28;3.97;;;0.45;;
26512;SDS011;14186;53.822;10.152;2024-03-23T14:26:30;1.15;;;0.40;;
26512;SDS011;14186;53.822;10.152;2024-03-23T14:31:30;4.47;;;0.50;;
26512;SDS011;14186;53.822;10.152;2024-03-23T14:36:30;0.75;;;0.20;;
26512;SDS011;14186;53.822;10.152;2024-03-23T14:41:32;1.95;;;0.57;;
26512;SDS011;14186;53.822;10.152;2024-03-23T14:46:32;5.72;;;0.63;;
26512;SDS011;14186;53.822;10.152;2024-03-23T14:51:33;3.70;;;0.65;;
26512;SDS011;14186;53.822;10.152;2024-03-23T14:56:34;4.10;;;0.60;;
26512;SDS011;14186;53.822;10.152;2024-03-23T15:01:34;5.35;;;0.77;;
26512;SDS011;14186;53.822;10.152;2024-03-23T15:06:35;7.68;;;0.90;;
26512;SDS011;14186;53.822;10.152;2024-03-23T15:11:36;8.67;;;0.93;;
26512;SDS011;14186;53.822;10.152;2024-03-23T15:16:37;3.58;;;0.73;;
26512;SDS011;14186;53.822;10.152;2024-03-23T15:21:37;6.18;;;1.20;;
26512;SDS011;14186;53.822;10.152;2024-03-23T15:26:38;5.95;;;1.92;;
26512;SDS011;14186;53.822;10.152;2024-03-23T15:31:39;4.03;;;0.65;;
26512;SDS011;14186;53.822;10.152;2024-03-23T15:36:39;3.10;;;1.00;;
26512;SDS011;14186;53.822;10.152;2024-03-23T15:41:40;2.67;;;1.00;;
26512;SDS011;14186;53.822;10.152;2024-03-23T15:46:41;3.08;;;1.05;;
26512;SDS011;14186;53.822;10.152;2024-03-23T15:51:41;7.00;;;1.20;;
26512;SDS011;14186;53.822;10.152;2024-03-23T15:56:43;2.83;;;1.10;;
26512;SDS011;14186;53.822;10.152;2024-03-23T16:01:43;6.53;;;0.80;;
26512;SDS011;14186;53.822;10.152;2024-03-23T16:06:43;5.70;;;1.10;;
26512;SDS011;14186;53.822;10.152;2024-03-23T16:11:45;4.63;;;0.73;;
26512;SDS011;14186;53.822;10.152;2024-03-23T16:16:45;3.60;;;0.57;;
26512;SDS011;14186;53.822;10.152;2024-03-23T16:21:45;2.75;;;0.57;;
26512;SDS011;14186;53.822;10.152;2024-03-23T16:26:47;2.28;;;0.77;;
26512;SDS011;14186;53.822;10.152;2024-03-23T16:31:48;3.17;;;1.25;;
26512;SDS011;14186;53.822;10.152;2024-03-23T16:36:48;6.90;;;1.13;;
26512;SDS011;14186;53.822;10.152;2024-03-23T16:41:50;3.72;;;0.75;;
26512;SDS011;14186;53.822;10.152;2024-03-23T16:46:50;6.85;;;0.70;;
26512;SDS011;14186;53.822;10.152;2024-03-23T16:51:51;4.07;;;0.60;;
26512;SDS011;14186;53.822;10.152;2024-03-23T16:56:52;4.25;;;0.50;;
26512;SDS011;14186;53.822;10.152;2024-03-23T17:01:52;3.42;;;0.57;;
26512;SDS011;14186;53.822;10.152;2024-03-23T17:06:53;2.33;;;0.65;;
26512;SDS011;14186;53.822;10.152;2024-03-23T17:11:54;0.45;;;0.30;;
26512;SDS011;14186;53.822;10.152;2024-03-23T17:16:54;2.72;;;0.30;;
26512;SDS011;14186;53.822;10.152;2024-03-23T17:21:55;0.90;;;0.38;;
26512;SDS011;14186;53.822;10.152;2024-03-23T17:26:56;6.95;;;0.70;;
26512;SDS011;14186;53.822;10.152;2024-03-23T17:31:57;2.63;;;0.70;;
26512;SDS011;14186;53.822;10.152;2024-03-23T17:36:57;3.03;;;0.70;;
26512;SDS011;14186;53.822;10.152;2024-03-23T17:41:58;1.75;;;0.50;;
26512;SDS011;14186;53.822;10.152;2024-03-23T17:46:59;3.67;;;0.70;;
26512;SDS011;14186;53.822;10.152;2024-03-23T17:52:00;1.50;;;0.77;;
26512;SDS011;14186;53.822;10.152;2024-03-23T17:57:01;2.30;;;0.73;;
26512;SDS011;14186;53.822;10.152;2024-03-23T18:02:02;4.30;;;0.57;;
26512;SDS011;14186;53.822;10.152;2024-03-23T18:07:02;5.43;;;0.63;;
26512;SDS011;14186;53.822;10.152;2024-03-23T18:12:04;4.60;;;0.73;;
26512;SDS011;14186;53.822;10.152;2024-03-23T18:17:05;3.20;;;1.20;;
26512;SDS011;14186;53.822;10.152;2024-03-23T18:22:05;4.63;;;1.60;;
26512;SDS011;14186;53.822;10.152;2024-03-23T18:27:07;1.63;;;0.50;;
26512;SDS011;14186;53.822;10.152;2024-03-23T18:32:07;4.82;;;1.13;;
26512;SDS011;14186;53.822;10.152;2024-03-23T18:37:07;3.38;;;0.80;;
26512;SDS011;14186;53.822;10.152;2024-03-23T18:42:09;4.95;;;0.93;;
26512;SDS011;14186;53.822;10.152;2024-03-23T18:47:09;1.13;;;0.80;;
26512;SDS011;14186;53.822;10.152;2024-03-23T18:52:09;2.83;;;0.80;;
26512;SDS011;14186;53.822;10.152;2024-03-23T18:57:11;6.40;;;2.67;;
26512;SDS011;14186;53.822;10.152;2024-03-23T19:02:11;5.30;;;1.20;;
26512;SDS011;14186;53.822;10.152;2024-03-23T19:07:11;2.95;;;1.20;;
26512;SDS011;14186;53.822;10.152;2024-03-23T19:12:13;5.15;;;1.30;;
26512;SDS011;14186;53.822;10.152;2024-03-23T19:17:13;4.55;;;1.05;;
26512;SDS011;14186;53.822;10.152;2024-03-23T19:22:13;7.30;;;1.20;;
26512;SDS011;14186;53.822;10.152;2024-03-23T19:27:15;13.45;;;2.78;;
26512;SDS011;14186;53.822;10.152;2024-03-23T19:32:15;4.90;;;1.23;;
26512;SDS011;14186;53.822;10.152;2024-03-23T19:37:15;3.33;;;1.00;;
26512;SDS011;14186;53.822;10.152;2024-03-23T19:42:17;4.75;;;1.27;;
26512;SDS011;14186;53.822;10.152;2024-03-23T19:47:17;5.38;;;1.13;;
26512;SDS011;14186;53.822;10.152;2024-03-23T19:52:18;3.50;;;1.00;;
26512;SDS011;14186;53.822;10.152;2024-03-23T19:57:19;4.88;;;1.10;;
26512;SDS011;14186;53.822;10.152;2024-03-23T20:02:20;4.65;;;1.30;;
26512;SDS011;14186;53.822;10.152;2024-03-23T20:07:20;9.80;;;1.55;;
26512;SDS011;14186;53.822;10.152;2024-03-23T20:12:21;2.45;;;0.77;;
26512;SDS011;14186;53.822;10.152;2024-03-23T20:17:22;7.63;;;1.40;;
26512;SDS011;14186;53.822;10.152;2024-03-23T20:22:22;1.15;;;0.50;;
26512;SDS011;14186;53.822;10.152;2024-03-23T20:27:24;2.60;;;0.63;;
26512;SDS011;14186;53.822;10.152;2024-03-23T20:32:24;2.35;;;1.10;;
26512;SDS011;14186;53.822;10.152;2024-03-23T20:37:24;4.15;;;1.00;;
26512;SDS011;14186;53.822;10.152;2024-03-23T20:42:26;3.83;;;0.73;;
26512;SDS011;14186;53.822;10.152;2024-03-23T20:47:26;2.22;;;0.73;;
26512;SDS011;14186;53.822;10.152;2024-03-23T20:52:26;5.70;;;1.27;;
26512;SDS011;14186;53.822;10.152;2024-03-23T20:57:28;9.68;;;1.98;;
26512;SDS011;14186;53.822;10.152;2024-03-23T21:02:28;5.40;;;1.35;;
26512;SDS011;14186;53.822;10.152;2024-03-23T21:07:28;3.17;;;0.85;;
26512;SDS011;14186;53.822;10.152;2024-03-23T21:12:30;6.15;;;1.63;;
26512;SDS011;14186;53.822;10.152;2024-03-23T21:17:30;3.85;;;1.75;;
26512;SDS011;14186;53.822;10.152;2024-03-23T21:22:30;7.43;;;2.08;;
26512;SDS011;14186;53.822;10.152;2024-03-23T21:27:32;5.63;;;2.03;;
26512;SDS011;14186;53.822;10.152;2024-03-23T21:32:32;6.90;;;1.73;;
26512;SDS011;14186;53.822;10.152;2024-03-23T21:37:32;4.97;;;1.75;;
26512;SDS011;14186;53.822;10.152;2024-03-23T21:42:34;5.17;;;1.70;;
26512;SDS011;14186;53.822;10.152;2024-03-23T21:47:34;5.75;;;1.90;;
26512;SDS011;14186;53.822;10.152;2024-03-23T21:52:35;2.70;;;1.63;;
26512;SDS011;14186;53.822;10.152;2024-03-23T21:57:36;7.30;;;1.60;;
26512;SDS011;14186;53.822;10.152;2024-03-23T22:02:37;5.38;;;1.70;;
26512;SDS011;14186;53.822;10.152;2024-03-23T22:07:37;3.47;;;1.35;;
26512;SDS011;14186;53.822;10.152;2024-03-23T22:12:38;4.38;;;1.63;;
26512;SDS011;14186;53.822;10.152;2024-03-23T22:17:39;8.70;;;1.73;;
26512;SDS011;14186;53.822;10.152;2024-03-23T22:22:39;7.97;;;1.73;;
26512;SDS011;14186;53.822;10.152;2024-03-23T22:27:41;7.28;;;1.30;;
26512;SDS011;14186;53.822;10.152;2024-03-23T22:32:42;5.38;;;1.63;;
26512;SDS011;14186;53.822;10.152;2024-03-23T22:37:43;6.28;;;1.60;;
26512;SDS011;14186;53.822;10.152;2024-03-23T22:42:44;5.78;;;1.67;;
26512;SDS011;14186;53.822;10.152;2024-03-23T22:47:45;15.07;;;2.10;;
26512;SDS011;14186;53.822;10.152;2024-03-23T22:52:45;5.70;;;2.17;;
26512;SDS011;14186;53.822;10.152;2024-03-23T22:57:47;5.28;;;1.73;;
26512;SDS011;14186;53.822;10.152;2024-03-23T23:02:47;2.70;;;1.38;;
26512;SDS011;14186;53.822;10.152;2024-03-23T23:07:47;4.75;;;1.45;;
26512;SDS011;14186;53.822;10.152;2024-03-23T23:12:49;6.78;;;1.58;;
26512;SDS011;14186;53.822;10.152;2024-03-23T23:17:50;9.10;;;1.65;;
26512;SDS011;14186;53.822;10.152;2024-03-23T23:22:51;8.38;;;1.60;;
26512;SDS011;14186;53.822;10.152;2024-03-23T23:27:53;5.07;;;1.92;;
26512;SDS011;14186;53.822;10.152;2024-03-23T23:32:53;4.28;;;1.65;;
26512;SDS011;14186;53.822;10.152;2024-03-23T23:37:53;6.10;;;1.13;;
26512;SDS011;14186;53.822;10.152;2024-03-23T23:42:55;11.82;;;1.70;;
26512;SDS011;14186;53.822;10.152;2024-03-23T23:47:55;6.65;;;1.38;;
26512;SDS011;14186;53.822;10.152;2024-03-23T23:52:55;4.55;;;1.20;;
26512;SDS011;14186;53.822;10.152;2024-03-23T23:57:57;6.35;;;1.77;;
